Terminal Aerodrome Forecast
Issued by NWS Cleveland, OH

Home | Current Version | Previous Version | Graphics & Text | Print | Product List | Glossary Off
Versions: 1 2 3 4 5 6 7 8 9 10 11 12 13 14 15 16 17 18 19 20 21 22

000
FTUS41 KCLE 300532
TAFMFD
TAF
KMFD 300532Z 3006/3106 09010KT P6SM BKN100 OVC200
     FM301000 10014KT P6SM SCT025 OVC050
     FM301400 10014KT 5SM -SHRA BR SCT006 OVC012
     FM301800 12012KT 5SM BR OVC012
     FM310000 15010KT 4SM -RA BR OVC012 PROB30 3100/3106 1SM TSRA BR
      OVC006CB=

USA.gov is the U.S. government's official web portal to all federal, state and local government web resources and services.